Aérodrome :
LOGIN :

S'inscrire | Disclaimer

   EN    FR    IT 

 










Légende :    VFR   VFR Marginal   IFR   IFR Intensif   IFR Très Intensif
Visi : 
Plafond : 
>= 8 km
>= 3000ft
5 à 8 km
1000 à 3000 ft
1500m à 5 km
500 à 1000 ft
800 à 1500m
200 à 500 ft
< 800m
< 200 ft
Symboles :   Orages  Brouillard  Fortes neiges  Fortes précipitations  Vent > 20 kt
SIGMETs :   Divers  Orages  Givrage  Turbulence  Onde Orograph.  Cendres Volcan.






- Altitude de l'aérodrome : 79 ft
- Code IATA : SPU


LDSP - Split

DERNIER METAR :
  • 260600Z 26003KT 230V330 9999 -RA FEW023TCU OVC033 17/15 Q1016 TEMPO TSRA FEW025CB

METARs EXPIRÉS :
  • 260530Z VRB02KT 9999 -RA VCTS FEW017 FEW030CB OVC043 17/16 Q1016 TEMPO TSRA
  • 260500Z 32007KT 8000 RA FEW025 FEW030TCU BKN035 17/16 Q1016 RETS TEMPO TSRA FEW030CB
  • 260430Z 36004KT 330V030 9999 -RA SCT040 BKN058 19/15 Q1015 NOSIG
  • 260400Z 36004KT 9999 SCT070 19/15 Q1015 NOSIG
  • 260330Z 01003KT 350V060 9999 SCT072 19/15 Q1015 NOSIG
  • 260300Z VRB02KT CAVOK 19/14 Q1015 NOSIG
  • 260230Z AUTO 05003KT 360V110 CAVOK 19/14 Q1014 NOSIG
  • 260200Z AUTO 02003KT 340V060 CAVOK 20/13 Q1014 NOSIG
  • 260130Z AUTO 35005KT 9999 FEW073/// 19/14 Q1014

TAF TAF LDSP
Valide du 26 à 06h jusqu'au 27 à 06h UTC


260525Z 2606/2706 34005KT 9999 SCT035 TX22/2614Z TN16/2703Z
TEMPO 2606/2616 RA
PROB40
TEMPO 2606/2614 TSRA FEW030CB BKN035
TEMPO 2611/2617 05008KT



MET'MAP, la Météo Aéronautique d'un coup d'oeil ! - Copyright ORBIFLY Décembre 2007 - Disclaimer

ORBIFLY MET'MAP TEAM :

Programmation & Développement : Alexandra Zaïnal
Sur une idée originale de : Baudouin d'Aumeries
Soutien technique & logistique : Manuel Goepfert
Assistance : Marc-Olivier Méhu




SOURCES & CREDITS :

   NOAA